createdAt,value
2023-05-17T00:01:52.700Z,24.40
2023-05-17T00:04:21.362Z,20.23
2023-05-17T00:06:49.345Z,25.33
2023-05-17T00:09:17.641Z,26.15
2023-05-17T00:11:45.753Z,22.88
2023-05-17T00:14:13.848Z,30.05
2023-05-17T00:16:42.696Z,26.38
2023-05-17T00:19:11.189Z,26.38
2023-05-17T00:21:39.464Z,25.83
2023-05-17T00:24:07.952Z,32.97
2023-05-17T00:26:36.912Z,25.85
2023-05-17T00:29:05.214Z,32.42
2023-05-17T00:31:33.294Z,21.75
2023-05-17T00:34:01.467Z,27.75
2023-05-17T00:36:29.789Z,24.48
2023-05-17T00:38:57.942Z,27.23
2023-05-17T00:41:26.330Z,26.02
2023-05-17T00:43:54.658Z,21.98
2023-05-17T00:46:22.774Z,19.55
2023-05-17T00:48:51.013Z,24.98
2023-05-17T00:51:21.176Z,23.35
2023-05-17T00:53:49.989Z,30.67
2023-05-17T00:56:18.290Z,19.98
2023-05-17T00:58:46.813Z,22.23
2023-05-17T01:01:15.600Z,25.85
2023-05-17T01:03:46.476Z,22.77
2023-05-17T01:06:15.156Z,25.10
2023-05-17T01:08:44.476Z,26.05
2023-05-17T01:11:35.111Z,21.13
2023-05-17T01:14:57.066Z,31.55
2023-05-17T01:17:36.193Z,21.35
2023-05-17T01:20:31.690Z,28.05
2023-05-17T01:23:24.496Z,24.48
2023-05-17T01:26:04.223Z,21.00
2023-05-17T01:28:33.105Z,17.60
2023-05-17T01:31:04.054Z,28.55
2023-05-17T01:33:32.875Z,22.60
2023-05-17T01:36:02.248Z,26.90
2023-05-17T01:38:30.575Z,19.23
2023-05-17T01:41:38.016Z,24.17
2023-05-17T01:44:05.891Z,29.48
2023-05-17T01:46:42.578Z,22.17
2023-05-17T01:49:35.307Z,27.13
2023-05-17T01:52:07.092Z,25.77
2023-05-17T01:55:04.362Z,24.95
2023-05-17T01:57:37.376Z,24.13
2023-05-17T02:00:09.697Z,28.77
2023-05-17T02:02:45.580Z,25.55
2023-05-17T02:05:14.457Z,24.60
2023-05-17T02:07:42.608Z,24.15
2023-05-17T02:10:11.824Z,37.20
2023-05-17T02:12:44.334Z,25.52
2023-05-17T02:15:13.930Z,33.45
2023-05-17T02:17:42.254Z,27.95
2023-05-17T02:20:12.058Z,28.75
2023-05-17T02:22:40.450Z,19.42
2023-05-17T02:25:09.090Z,33.10
2023-05-17T02:27:37.472Z,26.77
2023-05-17T02:30:07.665Z,40.95
2023-05-17T02:32:35.824Z,27.90
2023-05-17T02:35:04.417Z,30.60
2023-05-17T02:37:32.534Z,33.13
2023-05-17T02:40:00.922Z,29.40
2023-05-17T02:42:28.972Z,28.63
2023-05-17T02:44:58.128Z,25.52
2023-05-17T02:47:26.295Z,20.67
2023-05-17T02:49:54.712Z,25.92
2023-05-17T02:52:22.861Z,24.40
2023-05-17T02:54:51.728Z,22.60
2023-05-17T02:57:20.193Z,19.50
2023-05-17T02:59:48.556Z,25.40
2023-05-17T03:02:16.922Z,27.52
2023-05-17T03:04:45.100Z,20.42
2023-05-17T03:07:13.611Z,31.67
2023-05-17T03:09:42.977Z,26.20
2023-05-17T03:12:11.685Z,25.92
2023-05-17T03:14:40.092Z,26.55
2023-05-17T03:17:08.164Z,30.50
2023-05-17T03:19:39.036Z,26.25
2023-05-17T03:22:07.122Z,28.35
2023-05-17T03:24:35.637Z,18.48
2023-05-17T03:27:04.278Z,25.45
2023-05-17T03:29:33.111Z,20.95
2023-05-17T03:32:01.736Z,26.20
2023-05-17T03:34:30.109Z,21.42
2023-05-17T03:36:58.238Z,24.70
2023-05-17T03:39:26.604Z,20.42
2023-05-17T03:41:55.239Z,18.20
2023-05-17T03:44:24.389Z,23.10
2023-05-17T03:46:54.196Z,17.75
2023-05-17T03:49:23.880Z,22.10
2023-05-17T03:51:52.995Z,25.08
2023-05-17T03:54:22.072Z,21.85
2023-05-17T03:56:50.753Z,19.45
2023-05-17T03:59:20.170Z,20.45
2023-05-17T04:01:49.175Z,17.67
2023-05-17T04:04:17.494Z,22.20
2023-05-17T04:06:45.484Z,21.40
2023-05-17T04:09:15.767Z,24.63
2023-05-17T04:11:44.261Z,22.30
2023-05-17T04:14:14.221Z,23.05
2023-05-17T04:16:43.497Z,23.20
2023-05-17T04:19:12.075Z,22.20
2023-05-17T04:21:41.030Z,25.30
2023-05-17T04:24:10.139Z,25.48
2023-05-17T04:26:40.048Z,20.17
2023-05-17T04:29:08.831Z,24.08
2023-05-17T04:31:37.382Z,18.52
2023-05-17T04:34:05.918Z,22.33
2023-05-17T04:36:34.410Z,16.08
2023-05-17T04:39:04.975Z,17.80
2023-05-17T04:41:33.777Z,17.42
2023-05-17T04:44:06.640Z,19.48
2023-05-17T04:46:37.549Z,17.45
2023-05-17T04:49:06.461Z,18.30
2023-05-17T04:51:35.141Z,17.98
2023-05-17T04:54:18.216Z,19.40
2023-05-17T04:56:46.845Z,17.98
2023-05-17T04:59:22.770Z,15.93
2023-05-17T05:01:51.671Z,15.35
2023-05-17T05:04:20.079Z,18.10
2023-05-17T05:06:50.260Z,15.27
2023-05-17T05:09:19.760Z,14.00
2023-05-17T05:11:48.938Z,14.23
2023-05-17T05:14:17.990Z,12.43
2023-05-17T05:16:46.589Z,14.77
2023-05-17T05:19:16.181Z,16.42
2023-05-17T05:21:46.883Z,11.32
2023-05-17T05:24:16.560Z,11.45
2023-05-17T05:26:46.012Z,12.25
2023-05-17T05:29:15.692Z,11.40
2023-05-17T05:31:44.200Z,12.80
2023-05-17T05:34:13.151Z,15.00
2023-05-17T05:36:43.962Z,11.43
2023-05-17T05:39:12.752Z,16.05
2023-05-17T05:41:41.335Z,12.60
2023-05-17T05:44:09.657Z,13.60
2023-05-17T05:46:37.904Z,10.68
2023-05-17T05:49:07.162Z,15.05
2023-05-17T05:51:35.858Z,14.32
2023-05-17T05:54:05.057Z,15.55
2023-05-17T05:56:33.873Z,11.40
2023-05-17T05:59:02.430Z,12.75
2023-05-17T06:01:30.843Z,11.15
2023-05-17T06:03:59.162Z,10.25
2023-05-17T06:06:27.933Z,12.40
2023-05-17T06:08:58.123Z,10.98
2023-05-17T06:13:55.901Z,11.23
2023-05-17T06:16:24.025Z,10.57
2023-05-17T06:18:52.325Z,12.05
2023-05-17T06:21:20.616Z,11.25
2023-05-17T06:23:49.071Z,10.95
2023-05-17T06:26:17.215Z,13.38
2023-05-17T06:28:45.539Z,10.02
2023-05-17T06:31:13.637Z,10.88
2023-05-17T06:33:41.962Z,10.60
2023-05-17T06:36:10.202Z,16.85
2023-05-17T06:38:38.296Z,11.90
2023-05-17T06:41:06.677Z,10.85
2023-05-17T06:43:36.485Z,10.55
2023-05-17T06:46:05.841Z,10.17
2023-05-17T06:48:33.949Z,11.93
2023-05-17T06:51:02.117Z,12.13
2023-05-17T06:53:30.123Z,12.48
2023-05-17T06:55:58.278Z,11.32
2023-05-17T06:58:26.668Z,11.05
2023-05-17T07:00:54.981Z,11.63
2023-05-17T07:03:23.460Z,10.70
2023-05-17T07:05:51.784Z,10.85
2023-05-17T07:08:22.318Z,10.45
2023-05-17T07:10:52.738Z,13.70
2023-05-17T07:13:20.956Z,12.65
2023-05-17T07:15:49.086Z,11.95
2023-05-17T07:18:17.952Z,12.48
2023-05-17T07:20:46.611Z,10.60
2023-05-17T07:23:14.789Z,11.65
2023-05-17T07:25:43.278Z,10.90
2023-05-17T07:28:12.100Z,10.88
2023-05-17T07:30:40.243Z,12.10
2023-05-17T07:33:08.956Z,12.88
2023-05-17T07:35:39.994Z,10.98
2023-05-17T07:38:08.100Z,12.43
2023-05-17T07:40:36.293Z,14.65
2023-05-17T07:43:04.894Z,12.43
2023-05-17T07:45:35.959Z,15.45
2023-05-17T07:48:04.535Z,16.35
2023-05-17T07:50:33.341Z,13.15
2023-05-17T07:53:01.558Z,13.10
2023-05-17T07:55:30.382Z,17.33
2023-05-17T07:57:58.741Z,13.55
2023-05-17T08:00:29.118Z,17.92
2023-05-17T08:02:57.675Z,11.60
2023-05-17T08:05:26.179Z,12.80
2023-05-17T08:07:54.350Z,12.25
2023-05-17T08:10:23.164Z,13.80
2023-05-17T08:12:51.263Z,16.50
2023-05-17T08:15:19.423Z,12.73
2023-05-17T08:17:48.281Z,16.23
2023-05-17T08:20:16.612Z,13.32
2023-05-17T08:22:44.985Z,15.35
2023-05-17T08:25:13.406Z,15.05
2023-05-17T08:27:42.091Z,13.05
2023-05-17T08:30:14.894Z,14.38
2023-05-17T08:32:46.574Z,15.15
2023-05-17T08:35:15.255Z,19.65
2023-05-17T08:37:43.349Z,16.73
2023-05-17T08:40:14.984Z,19.42
2023-05-17T08:42:43.810Z,17.75
2023-05-17T08:45:13.798Z,18.63
2023-05-17T08:47:43.460Z,16.45
2023-05-17T08:50:13.051Z,18.25
2023-05-17T08:52:45.041Z,16.70
2023-05-17T08:55:16.423Z,17.63
2023-05-17T08:57:47.267Z,18.55
2023-05-17T09:00:19.956Z,16.90
2023-05-17T09:02:48.796Z,19.92
2023-05-17T09:05:17.004Z,17.13
2023-05-17T09:07:45.631Z,22.33
2023-05-17T09:10:14.229Z,19.52
2023-05-17T09:12:42.618Z,18.25
2023-05-17T09:15:24.155Z,21.67
2023-05-17T09:17:54.213Z,17.70
2023-05-17T09:20:34.583Z,19.02
2023-05-17T09:23:13.503Z,21.52
2023-05-17T09:25:49.978Z,20.75
2023-05-17T09:28:23.665Z,19.08
2023-05-17T09:30:52.114Z,21.95
2023-05-17T09:33:22.957Z,22.95
2023-05-17T09:35:51.383Z,23.35
2023-05-17T09:38:25.760Z,27.63
2023-05-17T09:40:54.296Z,27.75
2023-05-17T09:43:26.994Z,25.35
2023-05-17T09:45:59.422Z,26.70
2023-05-17T09:48:28.347Z,27.13
2023-05-17T09:50:56.805Z,28.90
2023-05-17T09:53:31.063Z,30.73
2023-05-17T09:56:05.698Z,35.22
2023-05-17T09:58:37.650Z,30.25
2023-05-17T10:01:11.381Z,48.08
2023-05-17T10:03:40.185Z,44.95
2023-05-17T10:06:23.763Z,41.63
2023-05-17T10:09:02.572Z,60.90
2023-05-17T10:11:37.866Z,31.23
2023-05-17T10:14:23.117Z,52.58
2023-05-17T10:16:52.409Z,33.63
2023-05-17T10:19:25.383Z,28.42
2023-05-17T10:21:54.824Z,31.23
2023-05-17T10:24:24.466Z,28.42
2023-05-17T10:26:54.542Z,30.77
2023-05-17T10:29:25.115Z,28.65
2023-05-17T10:31:55.041Z,27.10
2023-05-17T10:34:27.297Z,27.77
2023-05-17T10:36:58.588Z,26.20
2023-05-17T10:39:27.899Z,31.35
2023-05-17T10:42:13.576Z,25.83
2023-05-17T10:44:43.178Z,30.98
2023-05-17T10:47:17.701Z,32.72
2023-05-17T10:49:48.548Z,30.50
2023-05-17T10:52:21.584Z,29.40
2023-05-17T10:54:53.537Z,29.45
2023-05-17T10:57:50.713Z,42.80
2023-05-17T11:00:22.246Z,48.97
2023-05-17T11:02:52.722Z,33.17
2023-05-17T11:05:28.153Z,33.67
2023-05-17T11:08:17.476Z,25.63
2023-05-17T11:11:11.068Z,29.17
2023-05-17T11:13:55.387Z,31.15
2023-05-17T11:16:37.524Z,38.22
2023-05-17T11:19:12.505Z,37.45
2023-05-17T11:21:48.665Z,28.45
2023-05-17T11:24:27.286Z,26.42
2023-05-17T11:26:58.356Z,31.00
2023-05-17T11:29:31.209Z,27.92
2023-05-17T11:31:59.568Z,27.98
2023-05-17T11:34:28.625Z,28.20
2023-05-17T11:36:57.223Z,26.60
2023-05-17T11:39:27.013Z,31.45
2023-05-17T11:41:57.911Z,26.48
2023-05-17T11:44:32.296Z,28.08
2023-05-17T11:47:10.365Z,33.30
2023-05-17T11:49:41.247Z,27.30
2023-05-17T11:52:11.217Z,29.60
2023-05-17T11:54:41.510Z,27.38
2023-05-17T11:57:12.030Z,35.63
2023-05-17T11:59:41.426Z,30.27
2023-05-17T12:02:11.310Z,32.53
2023-05-17T12:04:42.557Z,27.10
2023-05-17T12:07:11.781Z,29.63
2023-05-17T12:09:45.580Z,27.42
2023-05-17T12:12:14.412Z,35.47
2023-05-17T12:14:48.144Z,30.95
2023-05-17T12:17:38.590Z,18.52
2023-05-17T12:20:10.228Z,33.08
2023-05-17T12:22:58.358Z,25.27
2023-05-17T12:25:34.035Z,30.20
2023-05-17T12:28:24.254Z,32.22
2023-05-17T12:31:00.291Z,23.63
2023-05-17T12:33:41.476Z,21.00
2023-05-17T12:36:13.190Z,36.28
2023-05-17T12:38:43.709Z,23.00
2023-05-17T12:41:20.014Z,31.63
2023-05-17T12:43:50.539Z,23.27
2023-05-17T12:46:24.281Z,25.23
2023-05-17T12:48:55.037Z,21.20
2023-05-17T12:51:27.245Z,20.33
2023-05-17T12:54:01.511Z,22.92
2023-05-17T12:56:30.723Z,17.67
2023-05-17T12:59:25.885Z,39.97
2023-05-17T13:01:56.941Z,16.38
2023-05-17T13:04:34.697Z,24.90
2023-05-17T13:07:12.481Z,28.23
2023-05-17T13:09:49.335Z,22.85
2023-05-17T13:12:26.584Z,25.98
2023-05-17T13:15:09.651Z,41.15
2023-05-17T13:17:47.535Z,35.40
2023-05-17T13:20:18.983Z,45.55
2023-05-17T13:22:48.971Z,30.25
2023-05-17T13:25:18.110Z,26.20
2023-05-17T13:27:49.030Z,36.90
2023-05-17T13:30:24.061Z,24.10
2023-05-17T13:32:54.838Z,23.50
2023-05-17T13:35:23.532Z,19.67
2023-05-17T13:37:51.807Z,22.98
2023-05-17T13:40:21.016Z,24.58
2023-05-17T13:42:50.504Z,30.30
2023-05-17T13:45:20.992Z,24.77
2023-05-17T13:47:51.723Z,20.27
2023-05-17T13:50:21.237Z,24.13
2023-05-17T13:52:51.011Z,27.75
2023-05-17T13:55:21.336Z,25.98
2023-05-17T13:57:49.769Z,26.98
2023-05-17T14:00:20.521Z,17.58
2023-05-17T14:02:50.396Z,35.30
2023-05-17T14:05:21.179Z,23.75
2023-05-17T14:07:55.282Z,21.52
2023-05-17T14:10:24.987Z,26.40
2023-05-17T14:12:57.591Z,26.83
2023-05-17T14:15:30.296Z,22.73
2023-05-17T14:17:59.187Z,26.30
2023-05-17T14:20:31.147Z,19.25
2023-05-17T14:23:01.784Z,21.08
2023-05-17T14:25:30.821Z,27.23
2023-05-17T14:27:59.523Z,29.95
2023-05-17T14:30:29.658Z,29.02
2023-05-17T14:33:00.854Z,28.73
2023-05-17T14:35:31.347Z,22.13
2023-05-17T14:38:00.020Z,31.13
2023-05-17T14:40:28.677Z,25.10
2023-05-17T14:42:58.536Z,24.88
2023-05-17T14:45:27.524Z,23.33
2023-05-17T14:47:56.083Z,39.78
2023-05-17T14:50:35.120Z,28.98
2023-05-17T14:53:06.899Z,34.28
2023-05-17T14:55:35.880Z,32.60
2023-05-17T14:58:04.109Z,42.50
2023-05-17T15:00:35.467Z,23.15
2023-05-17T15:03:06.481Z,31.65
2023-05-17T15:05:36.414Z,35.50
2023-05-17T15:08:10.250Z,36.47
2023-05-17T15:10:39.763Z,31.88
2023-05-17T15:13:11.229Z,32.45
2023-05-17T15:15:46.437Z,27.50
2023-05-17T15:18:17.053Z,24.92
2023-05-17T15:20:48.794Z,41.63
2023-05-17T15:23:23.863Z,33.17
2023-05-17T15:25:56.468Z,32.15
2023-05-17T15:28:28.556Z,39.17
2023-05-17T15:31:10.861Z,40.40
2023-05-17T15:33:40.484Z,40.97
2023-05-17T15:36:11.228Z,51.67
2023-05-17T15:38:42.698Z,38.33
2023-05-17T15:41:22.213Z,53.30
2023-05-17T15:43:53.488Z,40.45
2023-05-17T15:46:24.192Z,33.97
2023-05-17T15:48:55.990Z,38.60
2023-05-17T15:51:25.661Z,44.47
2023-05-17T15:53:58.586Z,30.08
2023-05-17T15:59:02.885Z,33.35
2023-05-17T16:01:31.254Z,38.42
2023-05-17T16:04:00.025Z,43.28
2023-05-17T16:06:35.953Z,31.27
2023-05-17T16:09:04.658Z,43.03
2023-05-17T16:11:32.824Z,36.05
2023-05-17T16:14:01.218Z,49.38
2023-05-17T16:16:33.436Z,38.22
2023-05-17T16:19:03.066Z,56.92
2023-05-17T16:21:33.415Z,59.60
2023-05-17T16:24:04.588Z,40.33
2023-05-17T16:26:43.884Z,31.38
2023-05-17T16:29:21.451Z,47.05
2023-05-17T16:31:51.586Z,28.98
2023-05-17T16:34:23.761Z,31.55
2023-05-17T16:36:53.574Z,56.30
2023-05-17T16:39:24.139Z,30.63
2023-05-17T16:41:53.270Z,34.05
2023-05-17T16:44:22.046Z,34.00
2023-05-17T16:46:50.953Z,44.28
2023-05-17T16:49:20.219Z,38.25
2023-05-17T16:51:56.923Z,51.75
2023-05-17T16:54:38.273Z,30.17
2023-05-17T16:57:11.941Z,46.15
2023-05-17T16:59:43.002Z,42.47
2023-05-17T17:02:12.599Z,70.30
2023-05-17T17:04:42.879Z,56.17
2023-05-17T17:07:13.254Z,58.83
2023-05-17T17:09:43.353Z,54.95
2023-05-17T17:12:24.200Z,62.90
2023-05-17T17:14:54.910Z,44.67
2023-05-17T17:17:23.340Z,51.65
2023-05-17T17:19:52.439Z,50.83
2023-05-17T17:22:21.846Z,60.03
2023-05-17T17:24:50.666Z,47.13
2023-05-17T17:27:19.551Z,61.83
2023-05-17T17:29:48.756Z,44.08
2023-05-17T17:32:17.301Z,44.95
2023-05-17T17:34:45.634Z,60.75
2023-05-17T17:37:14.388Z,93.72
2023-05-17T17:39:42.826Z,82.95
2023-05-17T17:42:11.388Z,114.13
2023-05-17T17:44:39.694Z,66.70
2023-05-17T17:47:08.483Z,100.20
2023-05-17T17:49:37.362Z,136.52
2023-05-17T17:52:08.026Z,133.95
2023-05-17T17:54:36.473Z,62.40
2023-05-17T17:57:05.574Z,55.72
2023-05-17T17:59:34.190Z,42.15
2023-05-17T18:02:02.382Z,40.15
2023-05-17T18:04:31.026Z,27.90
2023-05-17T18:06:59.913Z,52.63
2023-05-17T18:09:28.719Z,37.97
2023-05-17T18:11:58.133Z,111.28
2023-05-17T18:14:26.815Z,40.10
2023-05-17T18:16:58.161Z,35.33
2023-05-17T18:19:26.712Z,39.35
2023-05-17T18:21:55.454Z,42.28
2023-05-17T18:24:24.416Z,52.08
2023-05-17T18:26:55.260Z,52.65
2023-05-17T18:29:24.205Z,44.65
2023-05-17T18:31:52.780Z,40.67
2023-05-17T18:34:21.708Z,86.72
2023-05-17T18:36:50.706Z,46.13
2023-05-17T18:39:18.867Z,44.33
2023-05-17T18:41:47.176Z,57.90
2023-05-17T18:44:16.980Z,42.30
2023-05-17T18:46:47.506Z,32.92
2023-05-17T18:49:17.290Z,36.53
2023-05-17T18:51:45.845Z,50.08
2023-05-17T18:54:14.562Z,51.85
2023-05-17T18:56:43.214Z,33.33
2023-05-17T18:59:14.263Z,41.85
2023-05-17T19:01:44.447Z,39.00
2023-05-17T19:04:13.999Z,77.38
2023-05-17T19:06:42.703Z,74.35
2023-05-17T19:09:11.189Z,141.25
2023-05-17T19:11:42.653Z,64.47
2023-05-17T19:14:11.663Z,254.30
2023-05-17T19:16:40.349Z,42.50
2023-05-17T19:19:11.930Z,68.82
2023-05-17T19:21:41.079Z,46.92
2023-05-17T19:24:09.933Z,57.03
2023-05-17T19:26:38.727Z,42.90
2023-05-17T19:29:07.826Z,54.35
2023-05-17T19:31:37.380Z,36.95
2023-05-17T19:34:05.791Z,73.40
2023-05-17T19:36:35.097Z,31.23
2023-05-17T19:39:04.555Z,42.60
2023-05-17T19:41:33.512Z,53.78
2023-05-17T19:44:02.954Z,74.28
2023-05-17T19:46:31.578Z,69.43
2023-05-17T19:49:00.848Z,73.22
2023-05-17T19:51:29.916Z,81.78
2023-05-17T19:53:58.723Z,45.85
2023-05-17T19:56:27.198Z,57.85
2023-05-17T19:58:56.343Z,41.72
2023-05-17T20:01:25.073Z,34.15
2023-05-17T20:03:53.382Z,40.10
2023-05-17T20:06:22.388Z,40.88
2023-05-17T20:08:51.035Z,44.63
2023-05-17T20:11:19.669Z,35.28
2023-05-17T20:13:48.825Z,35.03
2023-05-17T20:16:17.473Z,33.05
2023-05-17T20:18:46.712Z,29.33
2023-05-17T20:21:19.797Z,34.28
2023-05-17T20:23:48.812Z,27.08
2023-05-17T20:26:19.133Z,29.33
2023-05-17T20:28:47.785Z,22.27
2023-05-17T20:31:17.646Z,30.73
2023-05-17T20:33:46.577Z,33.00
2023-05-17T20:36:15.477Z,33.78
2023-05-17T20:38:44.287Z,24.20
2023-05-17T20:41:15.066Z,32.45
2023-05-17T20:43:49.967Z,27.33
2023-05-17T20:46:19.722Z,29.00
2023-05-17T20:48:51.056Z,21.35
2023-05-17T20:51:19.863Z,19.92
2023-05-17T20:53:48.553Z,28.35
2023-05-17T20:56:19.611Z,36.10
2023-05-17T20:58:49.091Z,25.58
2023-05-17T21:01:17.489Z,23.13
2023-05-17T21:03:46.982Z,31.40
2023-05-17T21:06:16.335Z,31.67
2023-05-17T21:08:45.016Z,28.23
2023-05-17T21:11:19.776Z,36.95
2023-05-17T21:13:52.041Z,40.95
2023-05-17T21:16:20.994Z,26.13
2023-05-17T21:18:49.413Z,31.58
2023-05-17T21:21:18.310Z,30.98
2023-05-17T21:23:48.537Z,30.05
2023-05-17T21:26:17.249Z,35.15
2023-05-17T21:28:45.739Z,31.30
2023-05-17T21:31:15.944Z,41.33
2023-05-17T21:33:44.219Z,37.92
2023-05-17T21:36:12.605Z,36.63
2023-05-17T21:38:41.466Z,35.47
2023-05-17T21:41:09.784Z,50.80
2023-05-17T21:43:37.966Z,43.25
2023-05-17T21:46:06.170Z,80.55
2023-05-17T21:48:34.701Z,61.10
2023-05-17T21:51:02.972Z,50.53
2023-05-17T21:53:31.087Z,58.83
2023-05-17T21:56:02.570Z,38.50
2023-05-17T21:58:32.378Z,56.70
2023-05-17T22:01:01.486Z,75.22
2023-05-17T22:03:30.107Z,47.30
2023-05-17T22:05:58.879Z,43.53
2023-05-17T22:08:27.249Z,37.70
2023-05-17T22:10:55.946Z,43.50
2023-05-17T22:13:26.543Z,38.92
2023-05-17T22:15:58.519Z,38.67
2023-05-17T22:18:27.521Z,45.05
2023-05-17T22:20:59.387Z,34.20
2023-05-17T22:23:28.106Z,48.70
2023-05-17T22:25:58.365Z,31.98
2023-05-17T22:28:27.634Z,29.58
2023-05-17T22:30:55.937Z,31.10
2023-05-17T22:33:24.246Z,38.75
2023-05-17T22:35:53.704Z,27.80
2023-05-17T22:38:25.117Z,31.13
2023-05-17T22:40:53.562Z,33.40
2023-05-17T22:43:22.011Z,27.52
2023-05-17T22:45:51.247Z,29.17
2023-05-17T22:48:22.423Z,37.90
2023-05-17T22:50:50.641Z,40.13
2023-05-17T22:53:19.232Z,33.47
2023-05-17T22:55:49.236Z,29.40
2023-05-17T22:58:17.734Z,36.50
2023-05-17T23:00:46.071Z,55.50
2023-05-17T23:03:14.572Z,45.58
2023-05-17T23:05:45.627Z,33.92
2023-05-17T23:08:15.842Z,36.60
2023-05-17T23:10:49.081Z,35.78
2023-05-17T23:13:17.990Z,33.22
2023-05-17T23:15:47.513Z,36.20
2023-05-17T23:18:16.186Z,30.05
2023-05-17T23:20:46.409Z,58.13
2023-05-17T23:23:16.132Z,37.88
2023-05-17T23:25:48.507Z,46.80
2023-05-17T23:28:16.775Z,43.58
2023-05-17T23:30:48.719Z,59.72
2023-05-17T23:33:19.039Z,42.10
2023-05-17T23:35:47.234Z,49.42
2023-05-17T23:38:15.319Z,46.30
2023-05-17T23:40:43.861Z,38.92
2023-05-17T23:43:12.092Z,47.03
2023-05-17T23:45:40.165Z,40.78
2023-05-17T23:48:09.908Z,56.80
2023-05-17T23:50:39.228Z,55.85
2023-05-17T23:53:09.830Z,41.22
2023-05-17T23:55:38.767Z,50.10
2023-05-17T23:58:07.652Z,72.55
